Portada
METAR-TAF:

METAR-TAF

Aeropuertos :

Aeropuerto Sumburgh

Sumburgh, Islas Shetland, Escocia

latitud: 59-53N, longitud: 001-18W, altitud: 5 m

Observación

El informe se hizo hace 33 minutos, a las 08:50 UTC
Viento 13 kt del sur
Temperatura 14°C
Humedad 82%
Presión 1014 hPa
Visibilidad 10 km o más
Escasas nubes a una altura de 900 ft

METAR: EGPB 240850Z 19013KT 9999 FEW009 14/11 Q1014

Hora: 10:23 (09:23 UTC)

Pronóstico

El informe se hizo hace 1 hora y 26 minutos, a las 07:57 UTC
Pronóstico válido del 24 a las 09 UTC al 24 a las 18 UTC
Viento 12 kt del sur
Visibilidad 10 km o más
Escasas nubes a una altura de 800 ft
Nubes dispersas a una altura de 3500 ft
Probabilidad 30% :
Temporalmente
del 24 a las 09 UTC al 24 a las 13 UTC
Viento 15 kt del sur con ráfagas de 25 kt

TAF: EGPB 240757Z 2409/2418 18012KT 9999 FEW008 SCT035 PROB30 TEMPO 2409/2413 19015G25KT

Observaciones y pronósticos meteorológicos de más de 4000 aeropuertos (mensajes METAR y TAF).

Los puntos amarillos y rojos representan las estaciones disponibles.

Ponga el ratón en el punto deseado para ver el nombre de la estación.

Haga clic para ver las observaciones y los pronósticos meteorológicos.

Para cambiar el mapa : haga clic en los botones verdes con una cruz de color negro para hacer un zoom, en el botón verde con un guión para alejar o en las flechas verdes para mapas adyacentes.


METAR-TAF: